createdAt,value
2023-04-10T00:00:01.477Z,0.4997
2023-04-10T00:01:05.370Z,0.5021
2023-04-10T00:02:09.283Z,0.5009
2023-04-10T00:03:13.499Z,0.4997
2023-04-10T00:04:17.675Z,0.5039
2023-04-10T00:05:21.626Z,0.5069
2023-04-10T00:06:26.481Z,0.5027
2023-04-10T00:07:30.367Z,0.5074
2023-04-10T00:08:34.254Z,0.5121
2023-04-10T00:09:38.145Z,0.5166
2023-04-10T00:10:42.035Z,0.5203
2023-04-10T00:11:45.920Z,0.5170
2023-04-10T00:12:49.831Z,0.5198
2023-04-10T00:13:53.928Z,0.5175
2023-04-10T00:14:57.900Z,0.5193
2023-04-10T00:16:01.788Z,0.5231
2023-04-10T00:17:05.773Z,0.5193
2023-04-10T00:18:09.652Z,0.5265
2023-04-10T00:19:13.566Z,0.5290
2023-04-10T00:20:17.463Z,0.5279
2023-04-10T00:21:21.358Z,0.5271
2023-04-10T00:22:25.238Z,0.5199
2023-04-10T00:23:29.160Z,0.5233
2023-04-10T00:24:33.046Z,0.5164
2023-04-10T00:25:36.948Z,0.5141
2023-04-10T00:26:40.851Z,0.5122
2023-04-10T00:27:44.743Z,0.5077
2023-04-10T00:28:48.623Z,0.5058
2023-04-10T00:29:52.516Z,0.5042
2023-04-10T00:30:56.422Z,0.4922
2023-04-10T00:32:00.303Z,0.4836
2023-04-10T00:33:04.324Z,0.4793
2023-04-10T00:34:08.230Z,0.4804
2023-04-10T00:35:12.125Z,0.4830
2023-04-10T00:36:16.068Z,0.4842
2023-04-10T00:37:19.922Z,0.4880
2023-04-10T00:38:23.834Z,0.5023
2023-04-10T00:39:27.949Z,0.5122
2023-04-10T00:40:32.125Z,0.5180
2023-04-10T00:41:36.039Z,0.5254
2023-04-10T00:42:39.912Z,0.5210
2023-04-10T00:43:44.041Z,0.5131
2023-04-10T00:44:47.926Z,0.5033
2023-04-10T00:45:51.843Z,0.5114
2023-04-10T00:46:55.963Z,0.5148
2023-04-10T00:47:59.887Z,0.5171
2023-04-10T00:49:03.764Z,0.5125
2023-04-10T00:50:07.651Z,0.5123
2023-04-10T00:51:11.533Z,0.4953
2023-04-10T00:52:15.446Z,0.4888
2023-04-10T00:53:19.332Z,0.4777
2023-04-10T00:54:23.240Z,0.4786
2023-04-10T00:55:27.120Z,0.4894
2023-04-10T00:56:31.253Z,0.4985
2023-04-10T00:57:35.125Z,0.4995
2023-04-10T00:58:39.030Z,0.4943
2023-04-10T00:59:42.932Z,0.4936
2023-04-10T01:00:46.830Z,0.4905
2023-04-10T01:01:51.135Z,0.4900
2023-04-10T01:02:55.167Z,0.4744
2023-04-10T01:04:00.164Z,0.4760
2023-04-10T01:05:04.288Z,0.4809
2023-04-10T01:06:08.204Z,0.4769
2023-04-10T01:07:12.294Z,0.4768
2023-04-10T01:08:16.200Z,0.4756
2023-04-10T01:09:20.086Z,0.4770
2023-04-10T01:10:24.002Z,0.4822
2023-04-10T01:11:27.876Z,0.4806
2023-04-10T01:12:31.793Z,0.4859
2023-04-10T01:13:35.664Z,0.4867
2023-04-10T01:14:39.635Z,0.4852
2023-04-10T01:15:43.558Z,0.4920
2023-04-10T01:16:47.503Z,0.4849
2023-04-10T01:17:51.389Z,0.4787
2023-04-10T01:18:55.256Z,0.4795
2023-04-10T01:19:59.128Z,0.4836
2023-04-10T01:21:03.055Z,0.4842
2023-04-10T01:22:06.941Z,0.4815
2023-04-10T01:23:10.836Z,0.4872
2023-04-10T01:24:14.728Z,0.4942
2023-04-10T01:25:18.631Z,0.4910
2023-04-10T01:26:22.540Z,0.4879
2023-04-10T01:27:26.430Z,0.5035
2023-04-10T01:28:30.315Z,0.5054
2023-04-10T01:29:34.210Z,0.5000
2023-04-10T01:30:38.111Z,0.4957
2023-04-10T01:31:42.172Z,0.4820
2023-04-10T01:32:46.106Z,0.4845
2023-04-10T01:33:50.285Z,0.4837
2023-04-10T01:34:54.190Z,0.4817
2023-04-10T01:35:58.171Z,0.4878
2023-04-10T01:37:02.118Z,0.4885
2023-04-10T01:38:05.999Z,0.4893
2023-04-10T01:39:10.034Z,0.4908
2023-04-10T01:40:13.902Z,0.4976
2023-04-10T01:41:17.795Z,0.4993
2023-04-10T01:42:21.699Z,0.4986
2023-04-10T01:43:25.573Z,0.4968
2023-04-10T01:44:29.485Z,0.4937
2023-04-10T01:45:33.370Z,0.4955
2023-04-10T01:46:37.537Z,0.4947
2023-04-10T01:47:41.483Z,0.4950
2023-04-10T01:48:45.374Z,0.4958
2023-04-10T01:49:49.261Z,0.4984
2023-04-10T01:50:53.154Z,0.4990
2023-04-10T01:51:57.040Z,0.4985
2023-04-10T01:53:00.959Z,0.5161
2023-04-10T01:54:06.982Z,0.5233
2023-04-10T01:55:05.784Z,0.5244
2023-04-10T01:56:09.660Z,0.5368
2023-04-10T01:57:13.886Z,0.5355
2023-04-10T01:58:18.095Z,0.5265
2023-04-10T01:59:21.998Z,0.5153
2023-04-10T02:00:25.911Z,0.5204
2023-04-10T02:01:30.614Z,0.5159
2023-04-10T02:02:34.786Z,0.5007
2023-04-10T02:03:38.952Z,0.5055
2023-04-10T02:04:43.011Z,0.5210
2023-04-10T02:05:46.887Z,0.5105
2023-04-10T02:06:51.244Z,0.5057
2023-04-10T02:07:55.211Z,0.5044
2023-04-10T02:08:59.448Z,0.5096
2023-04-10T02:10:03.391Z,0.5095
2023-04-10T02:11:03.772Z,0.5105
2023-04-10T02:12:07.930Z,0.5130
2023-04-10T02:13:11.866Z,0.5151
2023-04-10T02:14:15.971Z,0.5087
2023-04-10T02:15:19.872Z,0.5149
2023-04-10T02:16:23.823Z,0.5180
2023-04-10T02:17:27.759Z,0.5147
2023-04-10T02:18:31.635Z,0.5208
2023-04-10T02:19:35.534Z,0.5210
2023-04-10T02:20:39.420Z,0.5146
2023-04-10T02:21:43.337Z,0.5232
2023-04-10T02:22:47.240Z,0.5311
2023-04-10T02:23:51.265Z,0.5328
2023-04-10T02:24:55.287Z,0.5320
2023-04-10T02:25:59.219Z,0.5202
2023-04-10T02:27:03.106Z,0.5282
2023-04-10T02:28:07.003Z,0.5387
2023-04-10T02:29:10.912Z,0.5352
2023-04-10T02:30:14.852Z,0.5278
2023-04-10T02:31:18.947Z,0.5221
2023-04-10T02:32:22.837Z,0.5153
2023-04-10T02:33:26.704Z,0.5110
2023-04-10T02:34:30.621Z,0.5124
2023-04-10T02:35:34.554Z,0.5216
2023-04-10T02:36:38.405Z,0.5207
2023-04-10T02:37:42.319Z,0.5122
2023-04-10T02:38:46.200Z,0.5023
2023-04-10T02:39:50.110Z,0.5018
2023-04-10T02:40:53.995Z,0.5136
2023-04-10T02:41:57.905Z,0.5193
2023-04-10T02:43:01.787Z,0.5188
2023-04-10T02:44:05.699Z,0.5150
2023-04-10T02:45:09.582Z,0.5112
2023-04-10T02:46:13.529Z,0.5098
2023-04-10T02:47:17.419Z,0.5146
2023-04-10T02:48:21.300Z,0.5111
2023-04-10T02:49:25.526Z,0.5042
2023-04-10T02:50:29.420Z,0.5091
2023-04-10T02:51:33.318Z,0.5139
2023-04-10T02:52:37.204Z,0.5182
2023-04-10T02:53:41.119Z,0.5146
2023-04-10T02:54:44.998Z,0.5176
2023-04-10T02:55:48.936Z,0.5073
2023-04-10T02:56:52.847Z,0.5062
2023-04-10T02:57:56.757Z,0.5081
2023-04-10T02:59:00.644Z,0.5031
2023-04-10T03:00:04.564Z,0.5169
2023-04-10T03:01:08.463Z,0.5159
2023-04-10T03:03:16.268Z,0.5170
2023-04-10T03:04:20.600Z,0.5254
2023-04-10T03:05:24.530Z,0.5223
2023-04-10T03:06:28.539Z,0.5268
2023-04-10T03:07:32.405Z,0.5186
2023-04-10T03:08:36.332Z,0.5025
2023-04-10T03:09:40.215Z,0.4903
2023-04-10T03:10:44.125Z,0.4945
2023-04-10T03:11:48.019Z,0.5067
2023-04-10T03:12:51.926Z,0.4954
2023-04-10T03:13:55.949Z,0.4957
2023-04-10T03:14:59.895Z,0.4882
2023-04-10T03:16:03.847Z,0.4842
2023-04-10T03:17:07.733Z,0.4879
2023-04-10T03:18:11.626Z,0.5020
2023-04-10T03:19:15.742Z,0.5067
2023-04-10T03:20:19.648Z,0.5048
2023-04-10T03:21:23.558Z,0.4965
2023-04-10T03:22:27.473Z,0.4984
2023-04-10T03:23:31.386Z,0.4934
2023-04-10T03:24:35.506Z,0.4868
2023-04-10T03:25:39.403Z,0.4843
2023-04-10T03:26:43.274Z,0.4912
2023-04-10T03:27:47.170Z,0.5009
2023-04-10T03:28:51.044Z,0.5051
2023-04-10T03:29:55.185Z,0.5103
2023-04-10T03:30:59.055Z,0.5225
2023-04-10T03:32:03.254Z,0.5213
2023-04-10T03:33:07.127Z,0.5161
2023-04-10T03:34:11.051Z,0.5144
2023-04-10T03:35:14.920Z,0.5223
2023-04-10T03:36:18.862Z,0.5240
2023-04-10T03:37:22.991Z,0.5286
2023-04-10T03:38:26.884Z,0.5275
2023-04-10T03:39:30.794Z,0.5216
2023-04-10T03:40:34.693Z,0.5214
2023-04-10T03:41:38.829Z,0.5336
2023-04-10T03:42:42.757Z,0.5345
2023-04-10T03:43:46.615Z,0.5380
2023-04-10T03:44:50.877Z,0.5403
2023-04-10T03:45:54.764Z,0.5344
2023-04-10T03:46:58.680Z,0.5323
2023-04-10T03:48:02.603Z,0.5268
2023-04-10T03:49:06.546Z,0.5323
2023-04-10T03:50:10.430Z,0.5412
2023-04-10T03:51:14.336Z,0.5450
2023-04-10T03:52:18.472Z,0.5399
2023-04-10T03:53:22.372Z,0.5225
2023-04-10T03:54:26.268Z,0.5110
2023-04-10T03:55:30.146Z,0.5084
2023-04-10T03:56:34.056Z,0.4898
2023-04-10T03:57:38.268Z,0.4845
2023-04-10T03:58:42.184Z,0.4853
2023-04-10T03:59:46.199Z,0.4883
2023-04-10T04:00:50.108Z,0.4927
2023-04-10T04:01:54.031Z,0.4980
2023-04-10T04:02:58.196Z,0.5027
2023-04-10T04:04:02.632Z,0.4966
2023-04-10T04:05:06.698Z,0.4990
2023-04-10T04:06:10.590Z,0.4894
2023-04-10T04:07:14.739Z,0.4888
2023-04-10T04:08:18.620Z,0.4902
2023-04-10T04:09:22.840Z,0.4993
2023-04-10T04:10:26.730Z,0.5104
2023-04-10T04:11:30.638Z,0.5158
2023-04-10T04:12:34.528Z,0.4992
2023-04-10T04:13:38.442Z,0.4960
2023-04-10T04:14:42.332Z,0.5108
2023-04-10T04:15:46.240Z,0.5218
2023-04-10T04:16:50.402Z,0.5212
2023-04-10T04:17:54.343Z,0.5145
2023-04-10T04:18:58.287Z,0.5080
2023-04-10T04:20:02.498Z,0.4999
2023-04-10T04:21:06.371Z,0.5091
2023-04-10T04:22:10.284Z,0.5327
2023-04-10T04:23:14.153Z,0.5297
2023-04-10T04:24:18.447Z,0.5227
2023-04-10T04:25:22.321Z,0.5191
2023-04-10T04:26:26.219Z,0.5038
2023-04-10T04:27:30.339Z,0.4985
2023-04-10T04:28:34.229Z,0.5039
2023-04-10T04:29:38.115Z,0.5038
2023-04-10T04:30:42.036Z,0.5115
2023-04-10T04:31:45.982Z,0.5161
2023-04-10T04:32:49.884Z,0.5289
2023-04-10T04:33:53.985Z,0.5319
2023-04-10T04:34:58.000Z,0.5270
2023-04-10T04:36:01.916Z,0.5395
2023-04-10T04:37:06.066Z,0.5354
2023-04-10T04:38:09.936Z,0.5352
2023-04-10T04:39:13.860Z,0.5383
2023-04-10T04:40:17.959Z,0.5380
2023-04-10T04:41:21.870Z,0.5346
2023-04-10T04:42:25.766Z,0.5393
2023-04-10T04:43:29.664Z,0.5420
2023-04-10T04:44:33.558Z,0.5325
2023-04-10T04:45:37.494Z,0.5297
2023-04-10T04:46:43.271Z,0.5161
2023-04-10T04:47:43.159Z,0.5031
2023-04-10T04:48:47.015Z,0.5028
2023-04-10T04:49:50.941Z,0.5140
2023-04-10T04:50:54.841Z,0.5135
2023-04-10T04:51:58.738Z,0.5033
2023-04-10T04:53:02.627Z,0.5077
2023-04-10T04:54:06.575Z,0.5136
2023-04-10T04:55:10.475Z,0.5138
2023-04-10T04:56:14.391Z,0.5129
2023-04-10T04:57:18.256Z,0.5095
2023-04-10T04:58:22.173Z,0.5013
2023-04-10T04:59:26.055Z,0.5020
2023-04-10T05:00:29.960Z,0.5084
2023-04-10T05:01:33.946Z,0.5176
2023-04-10T05:02:37.968Z,0.5307
2023-04-10T05:03:41.996Z,0.5315
2023-04-10T05:04:45.916Z,0.5350
2023-04-10T05:05:49.826Z,0.5361
2023-04-10T05:06:55.240Z,0.5400
2023-04-10T05:07:59.114Z,0.5350
2023-04-10T05:09:03.012Z,0.5430
2023-04-10T05:10:06.927Z,0.5369
2023-04-10T05:11:10.808Z,0.5332
2023-04-10T05:12:14.709Z,0.5424
2023-04-10T05:13:18.626Z,0.5365
2023-04-10T05:14:22.507Z,0.5485
2023-04-10T05:15:26.458Z,0.5650
2023-04-10T05:16:30.331Z,0.5717
2023-04-10T05:17:34.522Z,0.5699
2023-04-10T05:18:38.401Z,0.5559
2023-04-10T05:19:42.275Z,0.5420
2023-04-10T05:20:46.179Z,0.5309
2023-04-10T05:21:50.067Z,0.5348
2023-04-10T05:22:54.140Z,0.5239
2023-04-10T05:23:58.018Z,0.5196
2023-04-10T05:25:01.952Z,0.5149
2023-04-10T05:26:05.813Z,0.5271
2023-04-10T05:27:09.932Z,0.5261
2023-04-10T05:28:13.808Z,0.5234
2023-04-10T05:29:17.714Z,0.5308
2023-04-10T05:30:21.830Z,0.5293
2023-04-10T05:31:25.745Z,0.5293
2023-04-10T05:32:29.632Z,0.5291
2023-04-10T05:33:33.526Z,0.5334
2023-04-10T05:34:37.638Z,0.5359
2023-04-10T05:35:41.573Z,0.5353
2023-04-10T05:36:45.472Z,0.5235
2023-04-10T05:37:49.582Z,0.5200
2023-04-10T05:38:53.837Z,0.5297
2023-04-10T05:39:58.001Z,0.5209
2023-04-10T05:41:01.938Z,0.5212
2023-04-10T05:42:05.816Z,0.5287
2023-04-10T05:43:09.946Z,0.5331
2023-04-10T05:44:13.827Z,0.5326
2023-04-10T05:45:17.980Z,0.5275
2023-04-10T05:46:21.946Z,0.5266
2023-04-10T05:47:25.819Z,0.5152
2023-04-10T05:48:29.687Z,0.5130
2023-04-10T05:49:33.594Z,0.4992
2023-04-10T05:50:37.729Z,0.5096
2023-04-10T05:51:41.640Z,0.5201
2023-04-10T05:52:45.523Z,0.5321
2023-04-10T05:53:49.432Z,0.5343
2023-04-10T05:54:53.328Z,0.5351
2023-04-10T05:55:57.232Z,0.5212
2023-04-10T05:57:01.121Z,0.5167
2023-04-10T05:58:05.368Z,0.5071
2023-04-10T05:59:09.236Z,0.5055
2023-04-10T06:00:13.196Z,0.5185
2023-04-10T06:01:17.086Z,0.5122
2023-04-10T06:02:21.184Z,0.5066
2023-04-10T06:03:25.324Z,0.5213
2023-04-10T06:04:29.354Z,0.5383
2023-04-10T06:05:33.387Z,0.5432
2023-04-10T06:06:37.293Z,0.5282
2023-04-10T06:07:41.187Z,0.5189
2023-04-10T06:08:45.105Z,0.5198
2023-04-10T06:09:49.017Z,0.5373
2023-04-10T06:10:52.918Z,0.5401
2023-04-10T06:11:56.801Z,0.5313
2023-04-10T06:13:00.690Z,0.5287
2023-04-10T06:14:04.604Z,0.5369
2023-04-10T06:15:08.481Z,0.5395
2023-04-10T06:16:12.420Z,0.5588
2023-04-10T06:17:16.309Z,0.5571
2023-04-10T06:18:20.230Z,0.5406
2023-04-10T06:19:24.127Z,0.5442
2023-04-10T06:20:28.097Z,0.5553
2023-04-10T06:21:31.964Z,0.5728
2023-04-10T06:22:35.875Z,0.5827
2023-04-10T06:23:39.745Z,0.5824
2023-04-10T06:24:43.648Z,0.5777
2023-04-10T06:25:47.706Z,0.5761
2023-04-10T06:26:51.556Z,0.5695
2023-04-10T06:27:55.467Z,0.5524
2023-04-10T06:28:59.373Z,0.5425
2023-04-10T06:30:03.418Z,0.5491
2023-04-10T06:31:07.316Z,0.5505
2023-04-10T06:32:11.210Z,0.5625
2023-04-10T06:33:15.090Z,0.5646
2023-04-10T06:34:18.989Z,0.5606
2023-04-10T06:35:22.871Z,0.5453
2023-04-10T06:36:26.822Z,0.5420
2023-04-10T06:37:30.726Z,0.5319
2023-04-10T06:38:34.610Z,0.5266
2023-04-10T06:39:38.506Z,0.5269
2023-04-10T06:40:42.398Z,0.5340
2023-04-10T06:41:46.300Z,0.5366
2023-04-10T06:42:50.366Z,0.5351
2023-04-10T06:43:54.242Z,0.5323
2023-04-10T06:44:58.122Z,0.5179
2023-04-10T06:46:02.050Z,0.5155
2023-04-10T06:47:06.015Z,0.5169
2023-04-10T06:48:09.945Z,0.5152
2023-04-10T06:49:13.825Z,0.5242
2023-04-10T06:50:17.727Z,0.5364
2023-04-10T06:51:21.608Z,0.5401
2023-04-10T06:52:25.522Z,0.5235
2023-04-10T06:53:29.397Z,0.5160
2023-04-10T06:54:33.271Z,0.5132
2023-04-10T06:55:37.183Z,0.5110
2023-04-10T06:56:41.084Z,0.5027
2023-04-10T06:57:45.024Z,0.5081
2023-04-10T06:58:48.901Z,0.5086
2023-04-10T06:59:52.959Z,0.5162
2023-04-10T07:00:56.852Z,0.5168
2023-04-10T07:02:00.767Z,0.5076
2023-04-10T07:03:04.665Z,0.5152
2023-04-10T07:04:08.674Z,0.5177
2023-04-10T07:05:12.733Z,0.5234
2023-04-10T07:06:16.641Z,0.5459
2023-04-10T07:07:20.562Z,0.5367
2023-04-10T07:08:24.500Z,0.5286
2023-04-10T07:09:28.389Z,0.5314
2023-04-10T07:10:32.301Z,0.5328
2023-04-10T07:11:36.171Z,0.5333
2023-04-10T07:12:40.096Z,0.5246
2023-04-10T07:13:43.959Z,0.5065
2023-04-10T07:14:47.867Z,0.5179
2023-04-10T07:15:52.021Z,0.5142
2023-04-10T07:16:55.915Z,0.5221
2023-04-10T07:17:59.864Z,0.5176
2023-04-10T07:19:03.736Z,0.5056
2023-04-10T07:20:07.625Z,0.5060
2023-04-10T07:21:11.526Z,0.5179
2023-04-10T07:22:15.419Z,0.5137
2023-04-10T07:23:19.552Z,0.5214
2023-04-10T07:24:23.441Z,0.5284
2023-04-10T07:25:27.354Z,0.5291
2023-04-10T07:26:31.246Z,0.5221
2023-04-10T07:27:35.364Z,0.5279
2023-04-10T07:28:39.221Z,0.5126
2023-04-10T07:29:43.298Z,0.4961
2023-04-10T07:30:47.438Z,0.5091
2023-04-10T07:31:51.455Z,0.5204
2023-04-10T07:32:55.527Z,0.5145
2023-04-10T07:33:59.451Z,0.5079
2023-04-10T07:35:03.565Z,0.5037
2023-04-10T07:36:07.523Z,0.5158
2023-04-10T07:37:11.390Z,0.5255
2023-04-10T07:38:15.300Z,0.5196
2023-04-10T07:39:19.187Z,0.5291
2023-04-10T07:40:23.328Z,0.5293
2023-04-10T07:41:27.232Z,0.5415
2023-04-10T07:42:31.135Z,0.5408
2023-04-10T07:43:35.252Z,0.5338
2023-04-10T07:44:39.211Z,0.5397
2023-04-10T07:45:43.070Z,0.5432
2023-04-10T07:46:46.972Z,0.5389
2023-04-10T07:47:51.098Z,0.5362
2023-04-10T07:48:55.447Z,0.5372
2023-04-10T07:49:59.675Z,0.5295
2023-04-10T07:51:03.846Z,0.5219
2023-04-10T07:52:07.732Z,0.5345
2023-04-10T07:53:11.673Z,0.5355
2023-04-10T07:54:15.563Z,0.5296
2023-04-10T07:55:19.487Z,0.5311
2023-04-10T07:56:23.360Z,0.5275
2023-04-10T07:57:27.267Z,0.5207
2023-04-10T07:58:31.374Z,0.5182
2023-04-10T07:59:35.301Z,0.5056
2023-04-10T08:00:39.268Z,0.4987
2023-04-10T08:01:43.195Z,0.4974
2023-04-10T08:02:47.218Z,0.5117
2023-04-10T08:03:51.411Z,0.5209
2023-04-10T08:04:55.676Z,0.5347
2023-04-10T08:05:59.670Z,0.5290
2023-04-10T08:07:03.567Z,0.5249
2023-04-10T08:08:07.701Z,0.5299
2023-04-10T08:09:11.577Z,0.5213
2023-04-10T08:10:15.494Z,0.5290
2023-04-10T08:11:19.675Z,0.5219
2023-04-10T08:12:23.574Z,0.5140
2023-04-10T08:13:27.469Z,0.5113
2023-04-10T08:14:31.369Z,0.5076
2023-04-10T08:15:35.487Z,0.5075
2023-04-10T08:16:39.530Z,0.5112
2023-04-10T08:17:43.440Z,0.5118
2023-04-10T08:18:43.797Z,0.5088
2023-04-10T08:19:47.681Z,0.5083
2023-04-10T08:20:51.819Z,0.5060
2023-04-10T08:21:55.705Z,0.5107
2023-04-10T08:23:12.424Z,0.5026
2023-04-10T08:24:04.313Z,0.5097
2023-04-10T08:25:08.208Z,0.5134
2023-04-10T08:26:12.112Z,0.5120
2023-04-10T08:27:16.013Z,0.5152
2023-04-10T08:28:19.905Z,0.5125
2023-04-10T08:30:27.574Z,0.5140
2023-04-10T08:31:31.792Z,0.5103
2023-04-10T08:32:35.725Z,0.5088
2023-04-10T08:33:39.888Z,0.5077
2023-04-10T08:34:43.779Z,0.5087
2023-04-10T08:35:47.739Z,0.5097
2023-04-10T08:36:51.653Z,0.5047
2023-04-10T08:38:11.634Z,0.5129
2023-04-10T08:39:00.040Z,0.5182
2023-04-10T08:40:03.944Z,0.5155
2023-04-10T08:41:04.056Z,0.5072
2023-04-10T08:42:07.958Z,0.4926
2023-04-10T08:43:11.863Z,0.4945
2023-04-10T08:44:15.769Z,0.4994
2023-04-10T08:45:19.670Z,0.4930
2023-04-10T08:46:23.633Z,0.4837
2023-04-10T08:47:27.532Z,0.4850
2023-04-10T08:48:31.627Z,0.4934
2023-04-10T08:49:35.508Z,0.5000
2023-04-10T08:50:39.664Z,0.5057
2023-04-10T08:51:43.545Z,0.5111
2023-04-10T08:52:47.429Z,0.5238
2023-04-10T08:53:51.323Z,0.5256
2023-04-10T08:54:55.223Z,0.5239
2023-04-10T08:55:59.364Z,0.5238
2023-04-10T08:57:03.271Z,0.5304
2023-04-10T08:58:07.157Z,0.5431
2023-04-10T08:59:11.078Z,0.5423
2023-04-10T09:00:25.604Z,0.5346
2023-04-10T09:01:19.671Z,0.5306
2023-04-10T09:02:23.714Z,0.5177
2023-04-10T09:03:27.874Z,0.5240
2023-04-10T09:04:32.087Z,0.5271
2023-04-10T09:05:36.082Z,0.5206
2023-04-10T09:06:40.255Z,0.5131
2023-04-10T09:07:44.142Z,0.5127
2023-04-10T09:08:48.305Z,0.5091
2023-04-10T09:09:52.201Z,0.4911
2023-04-10T09:10:56.470Z,0.4835
2023-04-10T09:12:00.518Z,0.4881
2023-04-10T09:13:04.761Z,0.5015
2023-04-10T09:14:08.667Z,0.5002
2023-04-10T09:15:12.572Z,0.5093
2023-04-10T09:16:16.488Z,0.5108
2023-04-10T09:17:20.367Z,0.5070
2023-04-10T09:18:24.525Z,0.5110
2023-04-10T09:19:28.426Z,0.5220
2023-04-10T09:20:32.295Z,0.5195
2023-04-10T09:21:36.421Z,0.5176
2023-04-10T09:22:40.315Z,0.5118
2023-04-10T09:23:44.201Z,0.5183
2023-04-10T09:24:48.137Z,0.5243
2023-04-10T09:25:52.044Z,0.5249
2023-04-10T09:26:55.966Z,0.5256
2023-04-10T09:27:59.832Z,0.5214
2023-04-10T09:29:03.970Z,0.5210
2023-04-10T09:30:07.850Z,0.5255
2023-04-10T09:31:11.783Z,0.5256
2023-04-10T09:32:15.642Z,0.5150
2023-04-10T09:33:19.540Z,0.5121
2023-04-10T09:34:23.666Z,0.5073
2023-04-10T09:35:27.544Z,0.4949
2023-04-10T09:36:31.452Z,0.4880
2023-04-10T09:37:35.338Z,0.4801
2023-04-10T09:38:39.230Z,0.4794
2023-04-10T09:39:43.215Z,0.4823
2023-04-10T09:40:47.205Z,0.4911
2023-04-10T09:41:51.093Z,0.4907
2023-04-10T09:42:55.016Z,0.4941
2023-04-10T09:43:59.222Z,0.4954
2023-04-10T09:45:03.089Z,0.4996
2023-04-10T09:46:07.035Z,0.5045
2023-04-10T09:47:10.917Z,0.4965
2023-04-10T09:48:14.828Z,0.4987
2023-04-10T09:49:18.833Z,0.5042
2023-04-10T09:50:22.774Z,0.5018
2023-04-10T09:51:26.851Z,0.5140
2023-04-10T09:52:30.785Z,0.5126
2023-04-10T09:53:34.686Z,0.5029
2023-04-10T09:54:38.590Z,0.4978
2023-04-10T09:55:42.472Z,0.4895
2023-04-10T09:56:46.379Z,0.4914
2023-04-10T09:57:50.257Z,0.4940
2023-04-10T09:58:54.567Z,0.4868
2023-04-10T09:59:58.597Z,0.4802
2023-04-10T10:01:02.693Z,0.4799
2023-04-10T10:02:06.728Z,0.4887
2023-04-10T10:03:10.818Z,0.4974
2023-04-10T10:04:14.886Z,0.4991
2023-04-10T10:05:18.734Z,0.5095
2023-04-10T10:06:22.630Z,0.5088
2023-04-10T10:07:26.512Z,0.5096
2023-04-10T10:08:30.655Z,0.5140
2023-04-10T10:09:34.547Z,0.5258
2023-04-10T10:10:38.453Z,0.5312
2023-04-10T10:11:42.339Z,0.5280
2023-04-10T10:12:46.239Z,0.5131
2023-04-10T10:13:50.120Z,0.5092
2023-04-10T10:14:54.027Z,0.5114
2023-04-10T10:15:57.959Z,0.5039
2023-04-10T10:17:01.860Z,0.5043
2023-04-10T10:18:05.759Z,0.5095
2023-04-10T10:19:09.962Z,0.5004
2023-04-10T10:20:13.875Z,0.5071
2023-04-10T10:21:18.057Z,0.5073
2023-04-10T10:22:21.951Z,0.5076
2023-04-10T10:23:25.835Z,0.5142
2023-04-10T10:24:29.755Z,0.5147
2023-04-10T10:25:33.639Z,0.5170
2023-04-10T10:26:37.550Z,0.5232
2023-04-10T10:27:41.435Z,0.5308
2023-04-10T10:28:45.585Z,0.5329
2023-04-10T10:29:49.471Z,0.5390
2023-04-10T10:30:53.392Z,0.5371
2023-04-10T10:31:57.352Z,0.5311
2023-04-10T10:33:01.291Z,0.5302
2023-04-10T10:34:05.171Z,0.5253
2023-04-10T10:35:09.078Z,0.5203
2023-04-10T10:36:13.179Z,0.5304
2023-04-10T10:37:17.098Z,0.5286
2023-04-10T10:38:20.983Z,0.5381
2023-04-10T10:39:24.893Z,0.5334
2023-04-10T10:40:28.777Z,0.5262
2023-04-10T10:41:32.717Z,0.5274
2023-04-10T10:42:36.609Z,0.5255
2023-04-10T10:43:40.738Z,0.5236
2023-04-10T10:44:44.614Z,0.5284
2023-04-10T10:45:48.550Z,0.5279
2023-04-10T10:46:52.430Z,0.5204
2023-04-10T10:47:56.361Z,0.5129
2023-04-10T10:49:00.467Z,0.5043
2023-04-10T10:50:04.379Z,0.5044
2023-04-10T10:51:08.265Z,0.5119
2023-04-10T10:52:12.398Z,0.5163
2023-04-10T10:53:16.291Z,0.5194
2023-04-10T10:54:20.196Z,0.5170
2023-04-10T10:55:24.087Z,0.5249
2023-04-10T10:56:27.995Z,0.5258
2023-04-10T10:57:31.874Z,0.5266
2023-04-10T10:58:35.777Z,0.5299
2023-04-10T10:59:39.663Z,0.5280
2023-04-10T11:00:43.615Z,0.5215
2023-04-10T11:01:47.878Z,0.5066
2023-04-10T11:02:51.904Z,0.5086
2023-04-10T11:03:56.124Z,0.5064
2023-04-10T11:05:00.117Z,0.5028
2023-04-10T11:06:03.964Z,0.5058
2023-04-10T11:07:07.869Z,0.5050
2023-04-10T11:08:11.770Z,0.5028
2023-04-10T11:09:15.790Z,0.5125
2023-04-10T11:10:19.675Z,0.5137
2023-04-10T11:11:23.888Z,0.5062
2023-04-10T11:12:27.792Z,0.5013
2023-04-10T11:13:31.710Z,0.4992
2023-04-10T11:14:35.614Z,0.4981
2023-04-10T11:15:39.510Z,0.4983
2023-04-10T11:16:43.834Z,0.4842
2023-04-10T11:17:47.956Z,0.4780
2023-04-10T11:19:02.671Z,0.4810
2023-04-10T11:19:56.353Z,0.4868
2023-04-10T11:21:00.237Z,0.4841
2023-04-10T11:22:04.253Z,0.4841
2023-04-10T11:23:08.167Z,0.4845
2023-04-10T11:24:12.334Z,0.4880
2023-04-10T11:25:16.224Z,0.4929
2023-04-10T11:26:20.122Z,0.4849
2023-04-10T11:27:24.012Z,0.4881
2023-04-10T11:28:27.897Z,0.4889
2023-04-10T11:29:31.804Z,0.4870
2023-04-10T11:30:35.700Z,0.4839
2023-04-10T11:31:39.882Z,0.4799
2023-04-10T11:32:43.836Z,0.4863
2023-04-10T11:33:47.726Z,0.4812
2023-04-10T11:34:51.823Z,0.4756
2023-04-10T11:35:55.747Z,0.4776
2023-04-10T11:36:59.614Z,0.4742
2023-04-10T11:38:03.514Z,0.4758
2023-04-10T11:39:07.626Z,0.4748
2023-04-10T11:40:11.522Z,0.4763
2023-04-10T11:41:15.400Z,0.4807
2023-04-10T11:42:19.618Z,0.4835
2023-04-10T11:43:23.669Z,0.4775
2023-04-10T11:44:27.589Z,0.4773
2023-04-10T11:45:31.480Z,0.4822
2023-04-10T11:46:35.399Z,0.4787
2023-04-10T11:47:39.314Z,0.4791
2023-04-10T11:48:43.170Z,0.4785
2023-04-10T11:49:47.287Z,0.4759
2023-04-10T11:50:51.189Z,0.4822
2023-04-10T11:51:55.289Z,0.4834
2023-04-10T11:52:59.167Z,0.4875
2023-04-10T11:54:03.074Z,0.4961
2023-04-10T11:55:06.941Z,0.5074
2023-04-10T11:56:10.855Z,0.4993
2023-04-10T11:57:14.967Z,0.4879
2023-04-10T11:58:18.860Z,0.4882
2023-04-10T11:59:22.747Z,0.4837
2023-04-10T12:00:26.642Z,0.4896
2023-04-10T12:01:30.532Z,0.4888
2023-04-10T12:02:34.493Z,0.4963
2023-04-10T12:03:38.501Z,0.4972
2023-04-10T12:04:42.847Z,0.4878
2023-04-10T12:05:47.007Z,0.4886
2023-04-10T12:06:50.884Z,0.4979
2023-04-10T12:07:54.791Z,0.4907
2023-04-10T12:08:58.760Z,0.4836
2023-04-10T12:10:02.671Z,0.4773
2023-04-10T12:11:06.552Z,0.4770
2023-04-10T12:12:10.454Z,0.4733
2023-04-10T12:13:14.323Z,0.4767
2023-04-10T12:14:18.226Z,0.4796
2023-04-10T12:15:22.109Z,0.4748
2023-04-10T12:16:26.006Z,0.4836
2023-04-10T12:17:29.905Z,0.4810
2023-04-10T12:18:33.810Z,0.4851
2023-04-10T12:19:37.912Z,0.4830
2023-04-10T12:20:41.822Z,0.4818
2023-04-10T12:21:45.773Z,0.4816
2023-04-10T12:22:49.635Z,0.4837
2023-04-10T12:23:53.516Z,0.4900
2023-04-10T12:24:57.655Z,0.4947
2023-04-10T12:26:01.531Z,0.4956
2023-04-10T12:27:05.436Z,0.4897
2023-04-10T12:28:09.336Z,0.4912
2023-04-10T12:29:13.245Z,0.4892
2023-04-10T12:30:17.145Z,0.4882
2023-04-10T12:31:21.091Z,0.4788
2023-04-10T12:32:24.997Z,0.4768
2023-04-10T12:33:28.889Z,0.4805
2023-04-10T12:34:33.039Z,0.4766
2023-04-10T12:35:36.992Z,0.4868
2023-04-10T12:36:41.129Z,0.4893
2023-04-10T12:37:45.026Z,0.5013
2023-04-10T12:38:48.915Z,0.5061
2023-04-10T12:39:52.851Z,0.5071
2023-04-10T12:40:56.745Z,0.4989
2023-04-10T12:42:00.645Z,0.4952
2023-04-10T12:43:04.523Z,0.4894
2023-04-10T12:44:08.649Z,0.4875
2023-04-10T12:45:12.531Z,0.4771
2023-04-10T12:46:16.459Z,0.4732
2023-04-10T12:47:20.306Z,0.4707
2023-04-10T12:48:24.208Z,0.4811
2023-04-10T12:49:28.405Z,0.4880
2023-04-10T12:50:32.309Z,0.4942
2023-04-10T12:51:36.419Z,0.4963
2023-04-10T12:52:40.343Z,0.4962
2023-04-10T12:53:44.219Z,0.4914
2023-04-10T12:54:48.122Z,0.4886
2023-04-10T12:55:52.012Z,0.4854
2023-04-10T12:56:55.922Z,0.4914
2023-04-10T12:57:59.819Z,0.4949
2023-04-10T12:59:03.728Z,0.4956
2023-04-10T13:00:07.624Z,0.4920
2023-04-10T13:01:11.538Z,0.4947
2023-04-10T13:02:15.718Z,0.5029
2023-04-10T13:03:19.707Z,0.5011
2023-04-10T13:04:23.996Z,0.4968
2023-04-10T13:05:27.974Z,0.5018
2023-04-10T13:06:31.859Z,0.5133
2023-04-10T13:07:35.774Z,0.5115
2023-04-10T13:08:39.649Z,0.5015
2023-04-10T13:09:43.561Z,0.5013
2023-04-10T13:10:47.468Z,0.4952
2023-04-10T13:11:48.571Z,0.4918
2023-04-10T13:12:48.879Z,0.4851
2023-04-10T13:13:52.786Z,0.4808
2023-04-10T13:14:56.915Z,0.4829
2023-04-10T13:16:00.845Z,0.4818
2023-04-10T13:17:05.015Z,0.4811
2023-04-10T13:18:08.971Z,0.4815
2023-04-10T13:19:12.880Z,0.4772